EGQLEGPM

Guest
Details From EGQL - RAF Leuchars
To EGPM - Scatsta
Flight Number -
Tags decoded
Created
Modified
Stats Distance 250 nm / 463 km
Max Altitude 0 ft / 0 m
Waypoints 4
Social Downloads 3
Likes 0
Share VATSIM

Download

Looking for another format? Having issues loading an existing format? Contact us
Advertisement - Login to hide

Notes

Requested: EGQL ADN SUM EGPM

Route

EGQL ADN SUM EGPM

ID Type Via Altitude Latitude Longitude Leg Dist Tot Dist Heading (true) Name
O EGQL APT - 0 ft / 0 m 56.37498˚ -2.86385˚ - 0 nm - RAF Leuchars
ADN VOR - 0 ft / 0 m 57.31056˚ -2.26722˚ 59 nm 59 nm 19° / 19° ABERDEEN VOR-DME
SUM VOR - 0 ft / 0 m 59.87889˚ -1.28667˚ 157 nm 216 nm 11° / 12° SUMBURGH VOR-DME
O EGPM APT - 0 ft / 0 m 60.43265˚ -1.29611˚ 33 nm 250 nm 360° / 360° Scatsta

Altitude Profile

Advertisement - Login to hide

Weather


0- 5 10 15 20 25 30 35+ Temperature / ° C

Clouds and Precipitation
Forecast for 2017-12-15 06:00 UTC. Updated an hour ago

Ground ~20,000 ft ~40,000 ft Winds

EGQL

Details ICAO EGQL (ADX)
Name RAF Leuchars
Region United Kingdom
Timezone Europe/London (UTC+0.0)
Stats Elevation 38 ft / 12 m (AMSL)
Location 56.374980° -2.863847°
Runways 2
Magnetic Variation 2.165° W

METAR

EGQL 150550Z 36010KT 9999 SCT032 SCT050 04/02 Q0996 BLACKBLU

Decode

TAF

Not found

Departure Runways

ID Width Length Bearing (true) Bearing (mag) Surface Threshold Offset Overrun Length
04 151 ft / 46 m 4,783 ft / 1,458 m 36.52° 38.69° Asphalt 2,339 ft / 713 m 0 ft / 0 m
09 151 ft / 46 m 8,686 ft / 2,647 m 81.71° 83.88° Asphalt 886 ft / 270 m 0 ft / 0 m
22 151 ft / 46 m 4,783 ft / 1,458 m 216.53° 218.70° Asphalt 0 ft / 0 m 0 ft / 0 m
27 151 ft / 46 m 8,686 ft / 2,647 m 261.75° 263.92° Asphalt 217 ft / 66 m 0 ft / 0 m

EGPM

Details ICAO EGPM (SDZ)
Name Scatsta
Region United Kingdom
Timezone Europe/London (UTC+0.0)
Stats Elevation 81 ft / 25 m (AMSL)
Location 60.432651° -1.296108°
Runways 1
Magnetic Variation 2.142° W

METAR

EGPM 150620Z 36017KT 9999 FEW020 05/M01 Q0998 NOSIG

Decode

TAF

Not found

Destination Runways

ID Width Length Bearing (true) Bearing (mag) Surface Threshold Offset Overrun Length
06 102 ft / 31 m 4,442 ft / 1,354 m 55.29° 57.43° Asphalt 374 ft / 114 m 0 ft / 0 m
24 102 ft / 31 m 4,442 ft / 1,354 m 235.31° 237.45° Asphalt 308 ft / 94 m 0 ft / 0 m